Time;durP1;ratioP1;P1;durP2;ratioP2;P2;SDS_P1;SDS_P2;PMS_P1;PMS_P2;Temp;Humidity;BMP_temperature;BMP_pressure;BME280_temperature;BME280_humidity;BME280_pressure;Samples;Min_cycle;Max_cycle;Signal;HPM_P1;HPM_P2
2022/12/21 00:01:55;;;;;;;6.63;4.95;;;4.90;99.30;;;;;;5133957;27;20188;-67
2022/12/21 00:04:25;;;;;;;6.22;4.80;;;5.00;99.10;;;;;;5133494;27;20187;-67
2022/12/21 00:06:52;;;;;;;6.85;5.40;;;5.00;99.00;;;;;;5133840;27;20288;-66
2022/12/21 00:09:20;;;;;;;8.77;5.38;;;5.00;98.80;;;;;;5133567;27;20230;-67
2022/12/21 00:11:47;;;;;;;7.03;5.47;;;5.10;98.70;;;;;;5133606;27;20190;-67
2022/12/21 00:14:14;;;;;;;7.35;5.88;;;5.10;98.60;;;;;;5133483;27;20183;-67
2022/12/21 00:16:43;;;;;;;7.95;6.10;;;5.10;98.40;;;;;;5133757;27;20237;-66
2022/12/21 00:19:13;;;;;;;10.70;6.10;;;5.10;98.40;;;;;;5133001;27;20232;-66
2022/12/21 00:21:41;;;;;;;8.00;5.88;;;5.10;98.30;;;;;;5133530;27;20260;-66
2022/12/21 00:24:09;;;;;;;6.82;5.20;;;5.10;98.30;;;;;;5133220;27;20180;-66
2022/12/21 00:26:37;;;;;;;9.52;5.65;;;5.10;98.00;;;;;;5133557;27;20236;-67
2022/12/21 00:29:06;;;;;;;7.25;4.97;;;5.10;97.90;;;;;;5133481;27;20244;-66
2022/12/21 00:31:34;;;;;;;8.15;5.05;;;5.00;97.70;;;;;;5133602;27;20187;-66
2022/12/21 00:34:02;;;;;;;8.15;6.60;;;4.90;97.70;;;;;;5133283;27;20208;-66
2022/12/21 00:36:31;;;;;;;7.43;5.05;;;4.90;98.00;;;;;;5133335;27;20712;-66
2022/12/21 00:39:00;;;;;;;6.80;5.57;;;4.90;98.30;;;;;;5132643;27;20180;-66
2022/12/21 00:41:28;;;;;;;7.10;5.13;;;5.00;98.50;;;;;;5133196;27;20223;-66
2022/12/21 00:43:56;;;;;;;6.38;4.50;;;5.00;98.70;;;;;;5132615;27;20180;-67
2022/12/21 00:46:27;;;;;;;6.60;4.43;;;5.00;99.00;;;;;;5133367;27;20218;-66
2022/12/21 00:48:56;;;;;;;7.72;4.65;;;5.00;99.00;;;;;;5132570;27;20176;-67
2022/12/21 00:51:25;;;;;;;6.90;4.80;;;5.00;99.10;;;;;;5132954;27;20283;-66
2022/12/21 00:53:54;;;;;;;9.95;5.80;;;5.00;99.10;;;;;;5132617;27;20219;-66
2022/12/21 00:56:29;;;;;;;8.30;5.30;;;5.00;98.90;;;;;;5133266;27;20215;-67
2022/12/21 00:58:56;;;;;;;6.32;4.80;;;5.00;98.40;;;;;;5132665;27;20222;-66
2022/12/21 01:01:26;;;;;;;6.15;4.85;;;5.10;98.40;;;;;;5133053;28;20191;-66
2022/12/21 01:03:55;;;;;;;8.57;5.30;;;5.00;98.00;;;;;;5132768;27;20192;-67
2022/12/21 01:06:24;;;;;;;7.35;5.22;;;5.10;98.20;;;;;;5133260;27;20221;-67
2022/12/21 01:08:51;;;;;;;6.75;4.47;;;5.00;98.00;;;;;;5132806;27;20187;-67
2022/12/21 01:11:20;;;;;;;8.38;5.32;;;5.00;98.30;;;;;;5112608;28;20191;-67
2022/12/21 01:13:49;;;;;;;7.75;5.47;;;5.00;98.40;;;;;;5112569;28;20620;-67
2022/12/21 01:16:19;;;;;;;7.78;5.90;;;5.10;98.50;;;;;;5132448;27;20184;-66
2022/12/21 01:18:47;;;;;;;9.60;5.57;;;5.10;98.40;;;;;;5133210;27;20223;-66
2022/12/21 01:21:16;;;;;;;8.30;6.78;;;5.10;98.30;;;;;;5132557;27;20184;-66
2022/12/21 01:23:44;;;;;;;8.93;4.80;;;5.10;98.10;;;;;;5133051;27;20192;-67
2022/12/21 01:26:11;;;;;;;7.05;4.45;;;5.10;97.90;;;;;;5132777;28;20278;-66
2022/12/21 01:28:39;;;;;;;5.25;4.30;;;5.00;97.80;;;;;;5132706;27;20196;-66
2022/12/21 01:31:08;;;;;;;7.40;4.75;;;5.10;98.00;;;;;;5132374;27;20192;-67
2022/12/21 01:33:35;;;;;;;5.75;4.25;;;5.00;97.90;;;;;;5132820;28;20214;-66
2022/12/21 01:36:07;;;;;;;5.25;4.30;;;5.10;98.10;;;;;;5132252;28;20211;-67
2022/12/21 01:38:34;;;;;;;6.63;4.13;;;5.10;98.20;;;;;;5132717;27;20192;-67
2022/12/21 01:41:01;;;;;;;7.10;4.57;;;5.10;97.80;;;;;;5132277;28;20248;-67
2022/12/21 01:43:44;;;;;;;6.82;3.90;;;5.10;97.50;;;;;;5132695;27;20245;-67
2022/12/21 01:46:18;;;;;;;3.83;2.72;;;5.00;97.70;;;;;;5132515;27;20241;-67
2022/12/21 01:48:50;;;;;;;5.60;3.78;;;4.90;98.00;;;;;;5132930;27;20187;-66
2022/12/21 01:51:18;;;;;;;4.50;2.67;;;4.90;98.30;;;;;;5134177;27;20271;-66
2022/12/21 01:53:49;;;;;;;5.32;2.60;;;5.00;98.30;;;;;;5136640;27;20277;-66
2022/12/21 01:56:22;;;;;;;3.63;2.55;;;5.00;98.40;;;;;;5136632;27;20698;-66
2022/12/21 01:58:49;;;;;;;4.53;2.75;;;5.00;98.70;;;;;;5136478;27;20194;-66
2022/12/21 02:01:18;;;;;;;4.20;2.35;;;5.10;98.20;;;;;;5136017;27;20211;-66
2022/12/21 02:03:50;;;;;;;4.05;2.35;;;5.20;98.20;;;;;;5136715;27;20196;-66
2022/12/21 02:06:23;;;;;;;3.42;2.28;;;5.20;98.20;;;;;;5136130;27;20188;-67
2022/12/21 02:08:51;;;;;;;3.53;2.40;;;5.30;98.20;;;;;;5136749;27;20199;-67
2022/12/21 02:11:19;;;;;;;4.65;2.50;;;5.30;98.00;;;;;;5136012;27;20192;-66
2022/12/21 02:13:46;;;;;;;3.85;2.80;;;5.30;98.00;;;;;;5136128;27;20223;-66
2022/12/21 02:16:27;;;;;;;4.18;2.78;;;5.30;97.90;;;;;;5135916;27;20184;-66
2022/12/21 02:19:45;;;;;;;3.05;2.20;;;5.30;97.80;;;;;;5136269;27;20257;-66
2022/12/21 02:22:20;;;;;;;3.35;2.22;;;5.20;98.20;;;;;;5101750;28;20291;-66
2022/12/21 02:25:16;;;;;;;24.77;3.92;;;5.20;98.70;;;;;;5115468;28;20195;-66
2022/12/21 02:28:21;;;;;;;5.07;2.47;;;5.20;98.60;;;;;;5115352;28;20611;-66
2022/12/21 02:31:04;;;;;;;4.68;2.47;;;5.30;98.60;;;;;;5125664;27;20275;-66
2022/12/21 02:33:46;;;;;;;4.50;2.25;;;5.40;97.80;;;;;;5135800;27;20222;-66
2022/12/21 02:36:27;;;;;;;3.63;2.38;;;5.40;98.00;;;;;;5135524;27;20222;-66
2022/12/21 02:39:04;;;;;;;4.20;2.28;;;5.40;97.80;;;;;;5135533;27;20199;-66
2022/12/21 02:41:49;;;;;;;4.65;2.55;;;5.40;97.80;;;;;;5135780;27;20192;-66
2022/12/21 02:44:28;;;;;;;5.07;2.58;;;5.40;97.50;;;;;;5135264;27;20701;-66
2022/12/21 02:47:04;;;;;;;3.50;2.33;;;5.40;97.50;;;;;;5135933;27;20649;-67
2022/12/21 02:49:39;;;;;;;3.70;2.05;;;5.40;97.50;;;;;;5135484;27;20191;-67
2022/12/21 02:52:11;;;;;;;3.80;2.88;;;5.40;97.60;;;;;;5135478;27;20652;-67
2022/12/21 02:54:40;;;;;;;4.45;2.58;;;5.40;97.40;;;;;;5135224;27;20212;-66
2022/12/21 02:57:07;;;;;;;4.65;2.53;;;5.50;97.40;;;;;;5135412;27;20191;-67
2022/12/21 02:59:39;;;;;;;4.03;2.53;;;5.50;97.20;;;;;;5134657;27;20188;-66
2022/12/21 03:02:34;;;;;;;4.30;2.75;;;5.40;97.20;;;;;;5134731;27;20290;-67
2022/12/21 03:05:18;;;;;;;5.97;2.85;;;5.40;97.10;;;;;;5135324;27;20275;-66
2022/12/21 03:07:57;;;;;;;3.95;2.28;;;5.50;97.20;;;;;;5135410;27;20249;-67
2022/12/21 03:10:35;;;;;;;3.40;2.20;;;5.50;97.20;;;;;;5135747;27;20218;-67
2022/12/21 03:13:10;;;;;;;4.25;2.30;;;5.50;97.10;;;;;;5135146;27;20199;-67
2022/12/21 03:15:46;;;;;;;4.15;2.60;;;5.50;97.10;;;;;;5135808;27;20278;-66
2022/12/21 03:18:25;;;;;;;3.00;1.70;;;5.50;97.30;;;;;;5135855;27;20612;-67
2022/12/21 03:21:00;;;;;;;3.22;2.22;;;5.60;97.20;;;;;;5135530;27;20191;-67
2022/12/21 03:23:35;;;;;;;4.05;2.20;;;5.50;97.30;;;;;;5135360;27;20198;-66
2022/12/21 03:26:07;;;;;;;5.20;4.45;;;5.50;97.30;;;;;;5135433;27;20233;-66
2022/12/21 03:28:37;;;;;;;5.45;3.28;;;5.50;97.30;;;;;;5135106;27;20227;-66
2022/12/21 03:31:10;;;;;;;3.95;2.88;;;5.50;97.40;;;;;;5134951;27;20188;-67
2022/12/21 03:33:42;;;;;;;4.03;2.95;;;5.50;97.40;;;;;;5134420;27;20258;-67
2022/12/21 03:36:13;;;;;;;4.07;2.60;;;5.50;97.30;;;;;;5134596;27;20220;-66
2022/12/21 03:38:44;;;;;;;4.10;2.22;;;5.50;97.10;;;;;;5134097;27;20223;-67
2022/12/21 03:41:17;;;;;;;4.10;2.40;;;5.50;97.10;;;;;;5135375;27;20278;-66
2022/12/21 03:43:48;;;;;;;3.03;2.15;;;5.50;97.00;;;;;;5134796;27;20279;-67
2022/12/21 03:46:17;;;;;;;4.95;2.78;;;5.50;97.10;;;;;;5135079;27;20215;-67
2022/12/21 03:48:50;;;;;;;3.45;2.22;;;5.40;97.20;;;;;;5134955;27;20191;-67
2022/12/21 03:51:22;;;;;;;7.43;2.30;;;5.40;96.70;;;;;;5134365;27;20230;-66
2022/12/21 03:53:56;;;;;;;3.33;2.00;;;5.40;96.80;;;;;;5134780;27;20219;-67
2022/12/21 03:56:29;;;;;;;4.40;2.75;;;5.40;96.80;;;;;;5134622;27;20231;-67
2022/12/21 03:58:56;;;;;;;4.90;2.55;;;5.30;96.80;;;;;;5134532;27;20274;-67
2022/12/21 04:01:35;;;;;;;5.18;3.25;;;5.40;96.90;;;;;;5134771;27;20685;-67
2022/12/21 04:04:09;;;;;;;4.93;2.67;;;5.40;96.90;;;;;;5134533;27;20271;-67
2022/12/21 04:06:38;;;;;;;7.47;3.13;;;5.40;96.80;;;;;;5134873;27;20232;-66
2022/12/21 04:09:06;;;;;;;6.25;3.55;;;5.40;97.00;;;;;;5134627;27;20219;-67
2022/12/21 04:14:22;;;;;;;5.65;3.20;;;5.40;97.00;;;;;;5133506;27;20329;-66
2022/12/21 04:16:50;;;;;;;5.50;3.50;;;5.40;96.90;;;;;;5134075;27;20187;-67
2022/12/21 04:22:02;;;;;;;5.47;3.80;;;5.40;96.90;;;;;;5134554;27;20191;-67
2022/12/21 04:29:58;;;;;;;5.07;3.30;;;5.40;96.90;;;;;;5133322;27;20317;-67
2022/12/21 04:32:25;;;;;;;4.95;2.30;;;5.40;97.20;;;;;;5133652;27;20236;-67
2022/12/21 04:34:53;;;;;;;6.75;3.30;;;5.40;97.20;;;;;;5132835;27;20227;-67
2022/12/21 04:37:31;;;;;;;4.53;2.80;;;5.40;97.10;;;;;;5133800;27;20239;-67
2022/12/21 04:39:58;;;;;;;3.90;2.95;;;5.30;97.20;;;;;;5134545;27;20190;-67
2022/12/21 04:42:26;;;;;;;5.85;2.72;;;5.30;97.10;;;;;;5133726;27;20191;-66
2022/12/21 04:44:53;;;;;;;3.92;2.42;;;5.30;97.10;;;;;;5132673;27;20266;-67
2022/12/21 04:47:20;;;;;;;4.60;2.97;;;5.40;97.30;;;;;;5133884;27;20218;-67
2022/12/21 04:49:47;;;;;;;3.92;2.65;;;5.40;97.30;;;;;;5133683;27;20230;-67
2022/12/21 04:52:15;;;;;;;4.55;3.47;;;5.40;97.20;;;;;;5134179;27;20191;-66
2022/12/21 04:54:43;;;;;;;5.55;4.05;;;5.50;97.10;;;;;;5130226;27;20204;-67
2022/12/21 04:57:10;;;;;;;4.00;2.60;;;5.50;96.90;;;;;;5133359;27;20184;-66
2022/12/21 04:59:37;;;;;;;7.20;2.45;;;5.50;96.90;;;;;;5133341;27;20562;-67
2022/12/21 05:02:04;;;;;;;3.72;2.10;;;5.40;96.70;;;;;;5133484;27;20219;-67
2022/12/21 05:04:31;;;;;;;4.00;2.40;;;5.40;96.80;;;;;;5134033;27;20227;-66
2022/12/21 05:06:58;;;;;;;5.50;3.78;;;5.40;96.90;;;;;;5133132;27;20933;-67
2022/12/21 05:09:27;;;;;;;7.97;3.90;;;5.40;96.70;;;;;;5133679;27;20191;-66
2022/12/21 05:11:54;;;;;;;5.90;4.25;;;5.30;96.60;;;;;;5133578;27;20214;-67
2022/12/21 05:14:21;;;;;;;6.88;3.70;;;5.30;97.00;;;;;;5133223;27;20243;-67
2022/12/21 05:16:48;;;;;;;4.72;3.45;;;5.30;96.90;;;;;;5133733;28;20192;-67
2022/12/21 05:19:15;;;;;;;4.75;3.88;;;5.30;97.00;;;;;;5133913;27;20703;-66
2022/12/21 05:21:42;;;;;;;5.90;3.30;;;5.30;97.20;;;;;;5133711;27;20658;-67
2022/12/21 05:24:09;;;;;;;5.70;2.70;;;5.20;97.40;;;;;;5133857;27;20195;-66
2022/12/21 05:26:38;;;;;;;4.90;2.92;;;5.10;97.80;;;;;;5135636;27;20263;-67
2022/12/21 05:29:06;;;;;;;9.75;5.60;;;5.10;98.00;;;;;;5137792;27;20223;-67
2022/12/21 05:31:33;;;;;;;5.03;3.35;;;5.00;98.20;;;;;;5137954;27;20188;-66
2022/12/21 05:34:00;;;;;;;4.35;3.13;;;5.00;98.30;;;;;;5137676;27;20298;-67
2022/12/21 05:36:29;;;;;;;4.20;3.17;;;5.10;98.30;;;;;;5136734;27;20208;-67
2022/12/21 05:38:57;;;;;;;3.78;2.75;;;5.00;98.40;;;;;;5137365;27;20252;-66
2022/12/21 05:41:24;;;;;;;6.68;2.60;;;5.10;98.40;;;;;;5136844;27;20184;-67
2022/12/21 05:43:52;;;;;;;3.63;2.58;;;5.10;98.70;;;;;;5137601;27;20199;-67
2022/12/21 05:46:19;;;;;;;4.32;2.75;;;5.10;98.70;;;;;;5137499;27;20674;-66
2022/12/21 05:48:46;;;;;;;26.45;13.70;;;5.20;98.60;;;;;;5137264;27;20215;-67
2022/12/21 05:51:14;;;;;;;7.60;4.60;;;5.30;98.60;;;;;;5137284;27;20274;-67
2022/12/21 05:53:44;;;;;;;6.57;4.45;;;5.30;98.30;;;;;;5137026;27;20216;-67
2022/12/21 05:56:12;;;;;;;7.00;4.53;;;5.30;98.30;;;;;;5136426;27;20583;-67
2022/12/21 05:58:40;;;;;;;5.95;3.70;;;5.20;98.00;;;;;;5137147;27;20591;-67
2022/12/21 06:01:10;;;;;;;4.10;3.60;;;5.20;98.40;;;;;;5136233;27;20579;-67
2022/12/21 06:03:37;;;;;;;4.43;3.70;;;5.20;98.60;;;;;;5136999;27;20215;-66
2022/12/21 06:06:06;;;;;;;5.50;4.65;;;5.30;98.70;;;;;;5136971;27;20191;-67
2022/12/21 06:08:33;;;;;;;6.05;4.50;;;5.30;98.60;;;;;;5137141;27;20240;-66
2022/12/21 06:11:05;;;;;;;7.30;4.10;;;5.40;98.40;;;;;;5136280;27;20215;-67
2022/12/21 06:13:32;;;;;;;4.40;3.67;;;5.40;98.10;;;;;;5136562;27;20194;-67
2022/12/21 06:16:03;;;;;;;4.97;3.75;;;5.50;97.90;;;;;;5136667;27;20249;-67
2022/12/21 06:18:32;;;;;;;4.93;3.90;;;5.50;97.80;;;;;;5136206;27;20222;-67
2022/12/21 06:20:58;;;;;;;6.50;4.43;;;5.50;97.80;;;;;;5136607;27;20223;-67
2022/12/21 06:23:26;;;;;;;6.10;4.90;;;5.60;97.60;;;;;;5136446;27;20196;-67
2022/12/21 06:25:56;;;;;;;10.05;6.05;;;5.60;97.40;;;;;;5135807;27;20191;-67
2022/12/21 06:28:23;;;;;;;7.90;5.88;;;5.60;97.30;;;;;;5136368;27;20213;-67
2022/12/21 06:30:51;;;;;;;8.15;5.90;;;5.60;97.10;;;;;;5136437;27;20515;-67
2022/12/21 06:33:19;;;;;;;10.98;5.60;;;5.60;97.00;;;;;;5136358;27;20278;-66
2022/12/21 06:35:49;;;;;;;6.53;4.90;;;5.60;96.90;;;;;;5131243;27;20256;-65
2022/12/21 06:38:16;;;;;;;6.20;5.07;;;5.60;97.00;;;;;;5126612;27;20192;-65
2022/12/21 06:40:43;;;;;;;4.85;3.72;;;5.60;97.00;;;;;;5134205;27;20234;-65
2022/12/21 06:43:10;;;;;;;8.15;5.47;;;5.60;96.90;;;;;;5134331;27;20315;-65
2022/12/21 06:45:37;;;;;;;6.72;5.13;;;5.60;97.00;;;;;;5133668;27;20626;-65
2022/12/21 06:48:05;;;;;;;7.15;4.90;;;5.60;96.90;;;;;;5134455;27;20188;-66
2022/12/21 06:50:32;;;;;;;10.13;5.55;;;5.70;96.70;;;;;;5134185;27;20282;-65
2022/12/21 06:53:01;;;;;;;8.00;5.82;;;5.70;96.50;;;;;;5133447;27;20240;-65
2022/12/21 06:55:28;;;;;;;17.05;9.45;;;5.70;96.40;;;;;;5133276;27;20223;-65
2022/12/21 06:57:55;;;;;;;13.25;8.40;;;5.70;96.40;;;;;;5133579;27;20211;-65
2022/12/21 07:00:23;;;;;;;11.90;10.57;;;5.70;96.40;;;;;;5131338;27;20199;-66
2022/12/21 07:02:50;;;;;;;13.93;8.82;;;5.70;96.40;;;;;;5133946;27;20643;-65
2022/12/21 07:05:17;;;;;;;11.35;8.05;;;5.70;96.30;;;;;;5133034;27;20204;-65
2022/12/21 07:07:46;;;;;;;9.65;6.72;;;5.70;96.70;;;;;;5133790;27;20188;-65
2022/12/21 07:10:15;;;;;;;12.75;8.57;;;5.70;96.40;;;;;;5133363;27;20196;-66
2022/12/21 07:12:42;;;;;;;15.25;9.40;;;5.70;96.60;;;;;;5132416;27;20188;-65
2022/12/21 07:15:10;;;;;;;10.05;6.63;;;5.70;96.20;;;;;;5132957;27;20307;-65
2022/12/21 07:17:38;;;;;;;10.18;6.85;;;5.70;96.20;;;;;;5133657;27;20196;-65
2022/12/21 07:20:06;;;;;;;7.53;5.18;;;5.70;96.30;;;;;;5133775;27;20646;-65
2022/12/21 07:22:33;;;;;;;10.63;5.63;;;5.70;96.30;;;;;;5133269;27;20248;-66
2022/12/21 07:25:00;;;;;;;7.68;4.75;;;5.70;96.50;;;;;;5133877;27;20515;-66
2022/12/21 07:27:29;;;;;;;7.43;4.00;;;5.60;96.90;;;;;;5133520;27;20875;-66
2022/12/21 07:29:56;;;;;;;8.23;6.47;;;5.60;97.30;;;;;;5133788;27;20191;-66
2022/12/21 07:32:24;;;;;;;9.65;5.45;;;5.70;97.40;;;;;;5133358;27;20183;-66
2022/12/21 07:34:51;;;;;;;14.88;6.07;;;5.70;97.40;;;;;;5133253;27;20323;-66
2022/12/21 07:37:18;;;;;;;6.80;5.05;;;5.80;97.40;;;;;;5133431;27;20188;-67
2022/12/21 07:39:46;;;;;;;16.15;8.98;;;5.80;97.40;;;;;;5133363;27;20238;-66
2022/12/21 07:42:13;;;;;;;10.73;7.43;;;5.80;97.40;;;;;;5128701;27;20576;-66
2022/12/21 07:44:41;;;;;;;7.70;6.90;;;5.80;97.50;;;;;;5133038;27;20642;-66
2022/12/21 07:47:08;;;;;;;7.20;5.22;;;5.80;98.20;;;;;;5133182;27;20191;-66
2022/12/21 07:49:36;;;;;;;8.80;4.28;;;5.90;98.40;;;;;;5132526;27;20650;-67
2022/12/21 07:52:03;;;;;;;9.70;5.40;;;5.90;99.00;;;;;;5132469;27;20218;-66
2022/12/21 07:54:30;;;;;;;9.10;6.60;;;6.10;99.80;;;;;;5134139;27;20274;-66
2022/12/21 07:57:03;;;;;;;17.42;13.98;;;6.20;99.90;;;;;;5133988;27;20278;-66
2022/12/21 07:59:30;;;;;;;11.25;8.50;;;6.40;99.90;;;;;;5134391;27;20191;-66
2022/12/21 08:02:21;;;;;;;8.05;5.63;;;6.40;99.90;;;;;;5134559;27;20187;-66
2022/12/21 08:04:55;;;;;;;11.25;5.88;;;6.50;99.90;;;;;;5134765;27;20196;-66
2022/12/21 08:07:22;;;;;;;10.15;5.82;;;6.60;99.90;;;;;;5134457;27;20186;-66
2022/12/21 08:09:50;;;;;;;8.65;4.32;;;6.50;99.60;;;;;;5134022;27;20215;-66
2022/12/21 08:12:17;;;;;;;11.02;5.68;;;6.60;99.60;;;;;;5134368;27;20223;-66
2022/12/21 08:15:10;;;;;;;7.93;5.68;;;6.60;99.10;;;;;;5134323;27;20693;-66
2022/12/21 08:17:45;;;;;;;8.95;6.20;;;6.60;98.80;;;;;;5134387;27;20362;-66
2022/12/21 08:20:14;;;;;;;7.97;5.05;;;6.60;98.70;;;;;;5134217;27;20247;-67
2022/12/21 08:22:44;;;;;;;7.25;5.47;;;6.60;98.40;;;;;;5134118;27;20241;-66
2022/12/21 08:25:18;;;;;;;6.18;5.30;;;6.60;98.30;;;;;;5133994;27;20570;-66
2022/12/21 08:28:01;;;;;;;7.78;5.53;;;6.60;98.00;;;;;;5134385;27;20202;-67
2022/12/21 08:30:31;;;;;;;17.48;12.98;;;6.60;98.00;;;;;;5134440;27;20555;-66
2022/12/21 08:33:05;;;;;;;12.73;10.27;;;6.60;97.90;;;;;;5134103;27;20194;-66
2022/12/21 08:35:37;;;;;;;7.88;5.28;;;6.60;98.00;;;;;;5133959;27;20238;-66
2022/12/21 08:38:06;;;;;;;8.77;6.00;;;6.60;97.90;;;;;;5134041;27;20195;-66
2022/12/21 08:40:59;;;;;;;10.02;7.97;;;6.60;97.70;;;;;;5130787;27;20194;-66
2022/12/21 08:43:34;;;;;;;9.40;6.07;;;6.60;97.80;;;;;;5133025;27;20241;-66
2022/12/21 08:46:07;;;;;;;7.20;5.00;;;6.60;97.90;;;;;;5133417;27;20193;-66
2022/12/21 08:48:49;;;;;;;5.45;4.28;;;6.70;98.20;;;;;;5133141;27;20278;-66
2022/12/21 08:51:25;;;;;;;14.05;9.43;;;6.70;98.50;;;;;;5133961;27;20524;-66
2022/12/21 08:53:59;;;;;;;11.18;7.75;;;6.70;99.30;;;;;;5133516;27;20190;-66
2022/12/21 08:56:42;;;;;;;16.55;11.65;;;6.70;99.90;;;;;;5132563;27;20298;-66
2022/12/21 08:59:10;;;;;;;13.23;8.27;;;6.80;99.90;;;;;;5131660;27;20187;-66
2022/12/21 09:04:27;;;;;;;11.88;7.65;;;6.90;99.90;;;;;;5133053;27;20598;-66
2022/12/21 09:07:02;;;;;;;18.80;8.63;;;7.00;99.90;;;;;;5133495;27;20194;-66
2022/12/21 09:09:29;;;;;;;16.65;9.80;;;7.10;99.90;;;;;;5133644;28;20273;-66
2022/12/21 09:11:56;;;;;;;10.27;6.25;;;7.30;99.90;;;;;;5133664;28;20264;-67
2022/12/21 09:14:25;;;;;;;8.93;6.07;;;7.40;99.90;;;;;;5133400;27;20223;-66
2022/12/21 09:16:52;;;;;;;6.40;4.82;;;7.60;99.90;;;;;;5133519;27;20575;-67
2022/12/21 09:19:19;;;;;;;7.90;5.05;;;7.70;99.90;;;;;;5133610;27;20279;-66
2022/12/21 09:21:47;;;;;;;7.35;4.10;;;7.90;99.90;;;;;;5133604;28;20201;-66
2022/12/21 09:24:15;;;;;;;5.53;3.47;;;8.00;99.90;;;;;;5133530;28;20587;-66
2022/12/21 09:26:42;;;;;;;7.40;4.68;;;8.10;99.90;;;;;;5122727;28;20236;-66
2022/12/21 09:29:12;;;;;;;9.25;4.65;;;8.20;99.90;;;;;;5112891;28;20241;-66
2022/12/21 09:31:41;;;;;;;7.97;4.38;;;8.30;99.90;;;;;;5113004;28;20178;-66
2022/12/21 09:34:08;;;;;;;5.30;4.00;;;8.30;99.90;;;;;;5112845;28;20196;-67
2022/12/21 09:36:35;;;;;;;5.50;3.20;;;8.50;99.90;;;;;;5112751;28;20653;-67
2022/12/21 09:39:04;;;;;;;4.35;2.60;;;8.60;99.90;;;;;;5112606;28;20228;-67
2022/12/21 09:41:51;;;;;;;10.80;2.95;;;8.80;99.90;;;;;;5112863;28;20278;-67
2022/12/21 09:44:33;;;;;;;5.50;4.93;;;8.90;99.90;;;;;;5095694;28;20603;-66
2022/12/21 09:47:07;;;;;;;4.57;4.18;;;9.10;99.90;;;;;;5112780;28;20217;-66
2022/12/21 09:49:40;;;;;;;10.43;7.38;;;9.10;99.50;;;;;;5112606;28;20237;-66
2022/12/21 09:52:15;;;;;;;13.00;8.70;;;9.10;99.30;;;;;;5112372;28;20247;-66
2022/12/21 09:54:48;;;;;;;15.60;9.07;;;9.20;98.80;;;;;;5112898;28;20218;-66
2022/12/21 09:57:15;;;;;;;9.30;6.55;;;9.20;98.70;;;;;;5112526;28;20238;-66
2022/12/21 09:59:42;;;;;;;9.65;6.30;;;9.20;98.10;;;;;;5112441;28;20279;-66
2022/12/21 10:02:31;;;;;;;16.60;10.25;;;9.20;98.00;;;;;;5112464;28;20216;-67
2022/12/21 10:05:11;;;;;;;12.75;8.38;;;9.30;98.10;;;;;;5112305;28;20203;-66
2022/12/21 10:08:08;;;;;;;11.30;5.40;;;9.30;97.70;;;;;;5112399;28;20230;-66
2022/12/21 10:10:39;;;;;;;6.65;3.53;;;9.20;97.40;;;;;;5112428;28;20669;-66
2022/12/21 10:13:20;;;;;;;5.00;3.20;;;9.20;97.20;;;;;;5114041;28;20207;-66
2022/12/21 10:15:58;;;;;;;4.20;2.38;;;9.20;97.30;;;;;;5116107;28;20293;-66
2022/12/21 10:18:34;;;;;;;3.30;2.10;;;9.10;97.00;;;;;;5116364;27;20194;-66
2022/12/21 10:21:08;;;;;;;5.38;4.05;;;9.10;96.80;;;;;;5136651;27;20239;-66
2022/12/21 10:23:40;;;;;;;8.05;5.22;;;9.10;96.60;;;;;;5136584;27;20197;-66
2022/12/21 10:26:14;;;;;;;8.27;3.80;;;9.10;96.70;;;;;;5136306;27;20273;-67
2022/12/21 10:28:47;;;;;;;5.25;3.00;;;9.10;96.60;;;;;;5136373;27;20197;-66
2022/12/21 10:31:19;;;;;;;6.40;3.47;;;9.10;96.10;;;;;;5136325;27;20591;-66
2022/12/21 10:33:49;;;;;;;3.13;2.47;;;9.00;95.20;;;;;;5136521;27;20518;-66
2022/12/21 10:36:19;;;;;;;3.97;2.63;;;8.90;94.70;;;;;;5136340;27;20298;-66
2022/12/21 10:38:46;;;;;;;6.50;2.92;;;8.90;94.20;;;;;;5136556;27;20286;-66
2022/12/21 10:41:18;;;;;;;3.55;2.10;;;8.80;93.70;;;;;;5136247;27;20226;-66
2022/12/21 10:43:48;;;;;;;4.05;3.38;;;8.80;93.60;;;;;;5136234;27;20240;-68
2022/12/21 10:46:16;;;;;;;5.88;3.92;;;8.80;93.50;;;;;;5136230;27;20756;-66
2022/12/21 10:48:44;;;;;;;4.32;3.20;;;8.80;93.80;;;;;;5136171;27;20284;-66
2022/12/21 10:51:20;;;;;;;8.15;4.50;;;8.80;93.60;;;;;;5135888;27;20652;-66
2022/12/21 10:53:59;;;;;;;6.25;4.00;;;8.90;93.80;;;;;;5136002;27;20245;-66
2022/12/21 10:56:28;;;;;;;9.57;7.03;;;8.80;92.90;;;;;;5136004;27;20218;-66
2022/12/21 10:58:55;;;;;;;9.90;7.60;;;8.80;92.40;;;;;;5135838;27;20224;-66
2022/12/21 11:01:26;;;;;;;7.68;5.47;;;8.80;93.10;;;;;;5135718;27;20193;-66
2022/12/21 11:04:08;;;;;;;8.45;6.10;;;8.80;93.00;;;;;;5135826;27;20596;-66
2022/12/21 11:06:35;;;;;;;7.43;5.50;;;8.80;93.30;;;;;;5135750;27;20251;-66
2022/12/21 11:09:02;;;;;;;7.25;4.80;;;8.90;93.30;;;;;;5135715;27;20235;-66
2022/12/21 11:11:33;;;;;;;12.10;8.02;;;8.90;93.70;;;;;;5133624;27;20278;-66
2022/12/21 11:14:02;;;;;;;10.85;8.30;;;9.00;93.80;;;;;;5135309;27;20192;-66
2022/12/21 11:16:31;;;;;;;9.00;6.57;;;9.00;93.70;;;;;;5134135;27;20314;-66
2022/12/21 11:19:00;;;;;;;10.77;7.85;;;9.10;92.90;;;;;;5132162;27;20737;-66
2022/12/21 11:21:38;;;;;;;67.15;39.88;;;9.10;92.80;;;;;;5135110;27;20280;-66
2022/12/21 11:24:11;;;;;;;67.32;42.33;;;9.20;93.00;;;;;;5133516;27;20183;-66
2022/12/21 11:26:45;;;;;;;15.75;13.07;;;9.30;92.70;;;;;;5137216;27;20273;-67
2022/12/21 11:29:24;;;;;;;18.45;15.55;;;9.30;92.40;;;;;;5134817;27;21181;-66
2022/12/21 11:31:52;;;;;;;27.38;18.45;;;9.30;92.60;;;;;;5134796;27;20273;-66
2022/12/21 11:34:26;;;;;;;15.93;12.35;;;9.30;92.20;;;;;;5134232;27;20245;-66
2022/12/21 11:36:57;;;;;;;13.35;8.60;;;9.20;92.10;;;;;;5135480;27;20699;-66
2022/12/21 11:39:24;;;;;;;44.70;28.10;;;9.20;92.00;;;;;;5133291;27;20226;-66
2022/12/21 11:41:54;;;;;;;49.30;32.30;;;9.10;92.00;;;;;;5134968;27;20663;-66
2022/12/21 11:44:24;;;;;;;38.42;27.15;;;9.10;92.30;;;;;;5131428;27;20186;-66
2022/12/21 11:47:17;;;;;;;36.45;25.83;;;9.20;92.20;;;;;;5133917;27;20533;-66
2022/12/21 11:50:08;;;;;;;29.42;21.10;;;9.20;92.20;;;;;;5130302;27;20192;-66
2022/12/21 11:52:50;;;;;;;15.25;12.43;;;9.10;91.90;;;;;;5123327;27;20182;-66
2022/12/21 11:55:30;;;;;;;18.75;13.50;;;9.10;91.90;;;;;;5133600;27;20223;-66
2022/12/21 11:58:09;;;;;;;10.68;8.07;;;9.10;92.00;;;;;;5133947;27;20215;-66
2022/12/21 12:00:44;;;;;;;12.45;6.75;;;9.10;91.90;;;;;;5134630;27;20221;-66
2022/12/21 12:03:35;;;;;;;6.80;4.70;;;9.10;91.60;;;;;;5134936;27;20222;-66
2022/12/21 12:06:21;;;;;;;5.90;3.40;;;9.10;91.40;;;;;;5134616;27;20239;-66
2022/12/21 12:09:14;;;;;;;5.50;4.32;;;9.10;91.40;;;;;;5134752;27;20198;-66
2022/12/21 12:11:51;;;;;;;5.20;4.05;;;9.20;91.50;;;;;;5134822;27;20201;-66
2022/12/21 12:14:36;;;;;;;6.55;4.50;;;9.20;91.90;;;;;;5134433;27;20187;-66
2022/12/21 12:17:18;;;;;;;6.57;5.45;;;9.30;92.20;;;;;;5134798;27;20303;-66
2022/12/21 12:19:52;;;;;;;8.32;5.22;;;9.30;91.90;;;;;;5134956;27;20224;-66
2022/12/21 12:22:34;;;;;;;5.15;4.32;;;9.40;92.20;;;;;;5134858;27;20225;-66
2022/12/21 12:25:34;;;;;;;7.47;5.93;;;9.40;92.40;;;;;;5134643;27;20215;-66
2022/12/21 12:28:26;;;;;;;6.90;6.20;;;9.40;92.70;;;;;;5127230;27;20278;-66
2022/12/21 12:31:07;;;;;;;6.55;3.85;;;9.50;92.90;;;;;;5134002;27;20183;-66
2022/12/21 12:33:46;;;;;;;5.90;3.55;;;9.50;92.30;;;;;;5134062;27;20701;-66
2022/12/21 12:36:26;;;;;;;4.63;3.45;;;9.40;91.50;;;;;;5133145;27;20650;-66
2022/12/21 12:39:02;;;;;;;5.47;4.10;;;9.40;92.00;;;;;;5134176;27;20599;-66
2022/12/21 12:41:41;;;;;;;5.47;4.28;;;9.40;92.20;;;;;;5134554;27;20193;-66
2022/12/21 12:44:21;;;;;;;4.90;3.80;;;9.40;92.10;;;;;;5134257;27;20630;-66
2022/12/21 12:47:01;;;;;;;4.28;3.47;;;9.40;92.30;;;;;;5134402;27;20187;-66
2022/12/21 12:49:44;;;;;;;5.72;4.68;;;9.40;92.20;;;;;;5134356;27;20285;-66
2022/12/21 12:52:21;;;;;;;5.32;3.65;;;9.50;92.40;;;;;;5133985;27;20291;-66
2022/12/21 12:54:57;;;;;;;4.60;4.00;;;9.50;92.30;;;;;;5134243;27;20273;-66
2022/12/21 12:57:33;;;;;;;7.32;4.03;;;9.50;91.50;;;;;;5133939;27;20219;-66
2022/12/21 13:00:08;;;;;;;8.68;4.25;;;9.50;92.00;;;;;;5134191;27;20186;-66
2022/12/21 13:02:43;;;;;;;6.72;4.00;;;9.60;92.30;;;;;;5134230;27;20194;-66
2022/12/21 13:05:33;;;;;;;4.75;3.70;;;9.60;92.30;;;;;;5134237;27;20236;-66
2022/12/21 13:08:13;;;;;;;8.10;5.43;;;9.70;92.50;;;;;;5134257;27;20538;-66
2022/12/21 13:10:49;;;;;;;12.80;5.82;;;9.70;92.50;;;;;;5134172;27;20199;-66
2022/12/21 13:13:27;;;;;;;10.60;6.00;;;9.70;92.50;;;;;;5134137;28;20190;-66
2022/12/21 13:16:00;;;;;;;11.98;8.18;;;9.70;92.50;;;;;;5134049;28;20260;-66
2022/12/21 13:18:33;;;;;;;11.40;8.45;;;9.70;92.40;;;;;;5134100;27;20195;-66
2022/12/21 13:21:01;;;;;;;9.77;7.55;;;9.70;92.50;;;;;;5134069;27;20198;-66
2022/12/21 13:23:37;;;;;;;12.88;8.90;;;9.70;92.60;;;;;;5133982;27;20223;-66
2022/12/21 13:26:10;;;;;;;15.75;9.40;;;9.70;92.80;;;;;;5134009;27;20195;-66
2022/12/21 13:28:46;;;;;;;15.90;11.23;;;9.70;92.80;;;;;;5133877;28;20281;-66
2022/12/21 13:31:14;;;;;;;14.93;9.75;;;9.70;92.60;;;;;;5134101;27;20198;-66
2022/12/21 13:33:49;;;;;;;14.35;8.85;;;9.60;92.60;;;;;;5133959;27;20229;-66